createdAt,value
2017-01-04T00:00:44.627Z,55.42
2017-01-04T00:01:56.000Z,55.61
2017-01-04T00:03:07.326Z,55.9
2017-01-04T00:04:18.642Z,55.7
2017-01-04T00:05:29.964Z,55.9
2017-01-04T00:06:41.289Z,55.42
2017-01-04T00:07:52.654Z,55.7
2017-01-04T00:09:04.008Z,55.8
2017-01-04T00:10:15.329Z,55.7
2017-01-04T00:11:26.654Z,55.8
2017-01-04T00:12:37.539Z,55.9
2017-01-04T00:13:48.909Z,55.32
2017-01-04T00:15:00.229Z,55.51
2017-01-04T00:16:11.551Z,55.9
2017-01-04T00:17:22.440Z,55.8
2017-01-04T00:18:33.765Z,55.7
2017-01-04T00:19:45.138Z,55.51
2017-01-04T00:20:56.463Z,55.51
2017-01-04T00:22:07.781Z,55.61
2017-01-04T00:23:19.102Z,55.8
2017-01-04T00:24:30.423Z,55.8
2017-01-04T00:25:41.888Z,55.61
2017-01-04T00:26:53.205Z,55.9
2017-01-04T00:28:04.531Z,55.61
2017-01-04T00:29:15.852Z,55.61
2017-01-04T00:30:27.169Z,55.7
2017-01-04T00:31:38.535Z,55.61
2017-01-04T00:32:49.892Z,55.9
2017-01-04T00:34:01.209Z,55.51
2017-01-04T00:35:12.534Z,55.51
2017-01-04T00:36:23.859Z,55.51
2017-01-04T00:37:35.228Z,55.61
2017-01-04T00:38:46.549Z,55.61
2017-01-04T00:39:57.867Z,55.9
2017-01-04T00:41:09.188Z,55.9
2017-01-04T00:42:20.537Z,55.51
2017-01-04T00:43:31.907Z,55.7
2017-01-04T00:44:43.248Z,55.51
2017-01-04T00:45:54.573Z,55.9
2017-01-04T00:47:05.903Z,55.61
2017-01-04T00:48:17.220Z,55.61
2017-01-04T00:49:28.589Z,55.61
2017-01-04T00:50:39.910Z,55.9
2017-01-04T00:51:51.231Z,55.9
2017-01-04T00:53:02.553Z,55.9
2017-01-04T00:54:13.870Z,55.51
2017-01-04T00:55:25.267Z,55.42
2017-01-04T00:56:36.588Z,55.22
2017-01-04T00:57:47.901Z,55.7
2017-01-04T00:58:59.250Z,55.7
2017-01-04T01:00:10.564Z,55.42
2017-01-04T01:01:21.505Z,55.9
2017-01-04T01:02:32.827Z,55.8
2017-01-04T01:03:44.144Z,55.61
2017-01-04T01:04:55.461Z,55.42
2017-01-04T01:06:06.786Z,55.8
2017-01-04T01:07:18.164Z,55.42
2017-01-04T01:08:29.481Z,55.42
2017-01-04T01:09:40.802Z,55.42
2017-01-04T01:10:52.127Z,55.9
2017-01-04T01:12:03.456Z,55.7
2017-01-04T01:13:14.829Z,55.61
2017-01-04T01:14:26.151Z,55.42
2017-01-04T01:15:37.044Z,55.32
2017-01-04T01:16:48.365Z,55.9
2017-01-04T01:17:59.691Z,55.7
2017-01-04T01:19:11.167Z,55.61
2017-01-04T01:20:22.489Z,55.61
2017-01-04T01:21:33.374Z,55.7
2017-01-04T01:22:44.691Z,55.7
2017-01-04T01:23:56.012Z,55.61
2017-01-04T01:25:07.382Z,55.8
2017-01-04T01:26:18.703Z,55.13
2017-01-04T01:27:30.024Z,55.61
2017-01-04T01:28:41.349Z,55.8
2017-01-04T01:29:52.671Z,55.7
2017-01-04T01:31:03.608Z,55.42
2017-01-04T01:32:14.921Z,55.8
2017-01-04T01:33:25.818Z,55.9
2017-01-04T01:34:37.139Z,55.42
2017-01-04T01:35:48.461Z,55.42
2017-01-04T01:36:59.398Z,55.22
2017-01-04T01:38:10.727Z,55.13
2017-01-04T01:39:21.616Z,55.32
2017-01-04T01:40:32.934Z,55.42
2017-01-04T01:41:44.259Z,55.42
2017-01-04T01:42:55.632Z,55.22
2017-01-04T01:44:06.949Z,55.32
2017-01-04T01:45:17.850Z,55.8
2017-01-04T01:46:29.168Z,55.13
2017-01-04T01:47:40.481Z,55.32
2017-01-04T01:48:51.858Z,55.22
2017-01-04T01:50:03.183Z,55.22
2017-01-04T01:51:14.501Z,55.22
2017-01-04T01:52:25.842Z,55.22
2017-01-04T01:53:36.735Z,55.8
2017-01-04T01:54:48.109Z,55.32
2017-01-04T01:55:59.433Z,55.13
2017-01-04T01:57:09.894Z,55.42
2017-01-04T01:58:21.208Z,55.8
2017-01-04T01:59:32.537Z,55.8
2017-01-04T02:00:43.474Z,55.22
2017-01-04T02:01:54.791Z,55.8
2017-01-04T02:03:06.113Z,55.32
2017-01-04T02:04:17.430Z,55.32
2017-01-04T02:05:28.755Z,55.22
2017-01-04T02:06:40.128Z,55.7
2017-01-04T02:07:51.469Z,55.22
2017-01-04T02:09:02.783Z,55.22
2017-01-04T02:10:14.104Z,54.75
2017-01-04T02:11:25.453Z,55.22
2017-01-04T02:12:36.814Z,55.13
2017-01-04T02:13:47.704Z,55.7
2017-01-04T02:14:59.029Z,55.22
2017-01-04T02:16:10.350Z,54.85
2017-01-04T02:17:21.675Z,55.13
2017-01-04T02:18:33.044Z,54.94
2017-01-04T02:19:44.369Z,55.32
2017-01-04T02:20:55.711Z,54.94
2017-01-04T02:22:07.036Z,54.94
2017-01-04T02:23:18.365Z,55.13
2017-01-04T02:24:29.726Z,55.04
2017-01-04T02:25:41.043Z,55.32
2017-01-04T02:26:52.360Z,55.13
2017-01-04T02:28:03.681Z,54.94
2017-01-04T02:29:15.003Z,54.94
2017-01-04T02:30:26.370Z,55.13
2017-01-04T02:31:37.701Z,55.22
2017-01-04T02:32:49.019Z,55.22
2017-01-04T02:33:59.912Z,55.22
2017-01-04T02:35:11.237Z,54.94
2017-01-04T02:36:22.606Z,55.13
2017-01-04T02:37:33.931Z,54.94
2017-01-04T02:38:45.252Z,55.13
2017-01-04T02:39:56.573Z,55.04
2017-01-04T02:41:07.887Z,54.75
2017-01-04T02:42:18.824Z,55.04
2017-01-04T02:43:30.141Z,55.13
2017-01-04T02:44:41.466Z,55.13
2017-01-04T02:45:52.787Z,55.22
2017-01-04T02:47:04.105Z,55.42
2017-01-04T02:48:15.482Z,55.22
2017-01-04T02:49:26.803Z,54.94
2017-01-04T02:50:38.116Z,55.13
2017-01-04T02:51:49.441Z,54.94
2017-01-04T02:53:00.754Z,55.22
2017-01-04T02:54:12.124Z,55.13
2017-01-04T02:55:23.437Z,55.8
2017-01-04T02:56:34.758Z,55.04
2017-01-04T02:57:45.647Z,55.22
2017-01-04T02:58:56.964Z,55.04
2017-01-04T03:00:08.338Z,55.04
2017-01-04T03:01:19.655Z,55.22
2017-01-04T03:02:30.977Z,55.22
2017-01-04T03:03:42.297Z,54.94
2017-01-04T03:04:53.611Z,54.94
2017-01-04T03:06:04.976Z,55.22
2017-01-04T03:07:16.289Z,55.13
2017-01-04T03:08:27.215Z,54.94
2017-01-04T03:09:38.108Z,55.22
2017-01-04T03:10:49.457Z,54.85
2017-01-04T03:12:00.838Z,54.94
2017-01-04T03:13:12.159Z,54.94
2017-01-04T03:14:23.480Z,55.04
2017-01-04T03:15:34.806Z,55.13
2017-01-04T03:16:46.127Z,55.22
2017-01-04T03:17:57.548Z,55.22
2017-01-04T03:19:08.874Z,55.22
2017-01-04T03:20:20.195Z,55.22
2017-01-04T03:21:31.520Z,55.13
2017-01-04T03:22:42.841Z,55.32
2017-01-04T03:23:54.206Z,55.32
2017-01-04T03:25:05.531Z,54.85
2017-01-04T03:26:16.848Z,54.94
2017-01-04T03:27:27.746Z,55.04
2017-01-04T03:28:39.067Z,55.04
2017-01-04T03:29:50.432Z,55.13
2017-01-04T03:31:01.801Z,55.13
2017-01-04T03:32:13.123Z,55.13
2017-01-04T03:33:24.016Z,54.85
2017-01-04T03:34:35.337Z,55.04
2017-01-04T03:35:46.710Z,54.85
2017-01-04T03:36:58.031Z,55.13
2017-01-04T03:38:09.349Z,55.13
2017-01-04T03:39:20.244Z,55.04
2017-01-04T03:40:31.167Z,55.04
2017-01-04T03:41:42.536Z,54.85
2017-01-04T03:42:53.857Z,55.13
2017-01-04T03:44:05.183Z,55.04
2017-01-04T03:45:16.512Z,55.04
2017-01-04T03:46:27.849Z,55.22
2017-01-04T03:47:39.222Z,54.85
2017-01-04T03:48:50.112Z,54.85
2017-01-04T03:50:01.441Z,55.13
2017-01-04T03:51:12.774Z,54.85
2017-01-04T03:52:24.099Z,55.13
2017-01-04T03:53:35.464Z,55.13
2017-01-04T03:54:46.785Z,55.04
2017-01-04T03:55:58.107Z,55.04
2017-01-04T03:57:09.432Z,54.75
2017-01-04T03:58:20.753Z,55.13
2017-01-04T03:59:32.123Z,55.22
2017-01-04T04:00:43.439Z,55.13
2017-01-04T04:01:54.761Z,55.22
2017-01-04T04:03:05.655Z,55.13
2017-01-04T04:04:16.971Z,55.13
2017-01-04T04:05:28.344Z,55.13
2017-01-04T04:06:39.670Z,54.85
2017-01-04T04:07:50.987Z,55.13
2017-01-04T04:09:02.308Z,55.04
2017-01-04T04:10:13.661Z,55.13
2017-01-04T04:11:24.602Z,54.85
2017-01-04T04:12:35.924Z,55.04
2017-01-04T04:13:47.244Z,55.22
2017-01-04T04:14:58.130Z,55.13
2017-01-04T04:16:09.019Z,55.22
2017-01-04T04:17:20.388Z,55.22
2017-01-04T04:18:31.705Z,54.85
2017-01-04T04:19:43.031Z,55.13
2017-01-04T04:20:54.347Z,55.04
2017-01-04T04:22:05.665Z,55.04
2017-01-04T04:23:17.082Z,55.22
2017-01-04T04:24:28.407Z,55.13
2017-01-04T04:25:39.737Z,54.85
2017-01-04T04:26:51.069Z,54.85
2017-01-04T04:28:02.392Z,55.13
2017-01-04T04:29:13.760Z,54.85
2017-01-04T04:30:25.077Z,55.13
2017-01-04T04:31:36.395Z,55.13
2017-01-04T04:32:47.712Z,55.04
2017-01-04T04:33:59.061Z,55.04
2017-01-04T04:35:10.434Z,55.04
2017-01-04T04:36:21.743Z,55.22
2017-01-04T04:37:32.636Z,54.85
2017-01-04T04:38:43.982Z,55.13
2017-01-04T04:39:55.303Z,55.13
2017-01-04T04:41:06.728Z,55.04
2017-01-04T04:42:18.050Z,54.75
2017-01-04T04:43:29.382Z,55.13
2017-01-04T04:44:40.696Z,55.13
2017-01-04T04:45:52.021Z,55.04
2017-01-04T04:47:03.394Z,55.04
2017-01-04T04:48:14.727Z,55.22
2017-01-04T04:49:26.057Z,55.13
2017-01-04T04:50:37.382Z,55.13
2017-01-04T04:51:48.707Z,55.13
2017-01-04T04:53:00.072Z,54.85
2017-01-04T04:54:11.393Z,55.13
2017-01-04T04:55:22.710Z,55.13
2017-01-04T04:56:34.032Z,55.04
2017-01-04T04:57:44.925Z,55.13
2017-01-04T04:58:55.862Z,55.13
2017-01-04T05:00:06.747Z,55.13
2017-01-04T05:01:18.068Z,55.13
2017-01-04T05:02:28.957Z,55.04
2017-01-04T05:03:40.275Z,55.13
2017-01-04T05:04:51.220Z,55.04
2017-01-04T05:06:02.545Z,55.13
2017-01-04T05:07:13.870Z,55.22
2017-01-04T05:08:25.187Z,55.22
2017-01-04T05:09:36.505Z,55.22
2017-01-04T05:10:47.874Z,55.42
2017-01-04T05:11:58.351Z,55.13
2017-01-04T05:13:09.680Z,55.13
2017-01-04T05:14:20.997Z,55.04
2017-01-04T05:15:32.314Z,55.13
2017-01-04T05:16:43.676Z,55.22
2017-01-04T05:17:54.993Z,55.04
2017-01-04T05:19:06.314Z,55.13
2017-01-04T05:20:17.627Z,55.13
2017-01-04T05:21:28.516Z,54.94
2017-01-04T05:22:39.889Z,55.22
2017-01-04T05:23:51.243Z,55.04
2017-01-04T05:25:02.564Z,55.13
2017-01-04T05:26:13.893Z,55.04
2017-01-04T05:27:25.218Z,55.04
2017-01-04T05:28:36.580Z,55.22
2017-01-04T05:29:47.901Z,54.94
2017-01-04T05:30:59.218Z,55.22
2017-01-04T05:32:10.543Z,55.04
2017-01-04T05:33:21.864Z,54.94
2017-01-04T05:34:33.233Z,55.32
2017-01-04T05:35:44.550Z,55.22
2017-01-04T05:36:55.867Z,55.22
2017-01-04T05:38:07.193Z,55.04
2017-01-04T05:39:18.522Z,55.13
2017-01-04T05:40:29.887Z,55.51
2017-01-04T05:41:41.204Z,55.32
2017-01-04T05:42:52.093Z,55.04
2017-01-04T05:44:03.422Z,55.04
2017-01-04T05:45:14.323Z,55.32
2017-01-04T05:46:25.692Z,55.32
2017-01-04T05:47:37.013Z,55.32
2017-01-04T05:48:48.330Z,55.22
2017-01-04T05:49:59.647Z,55.04
2017-01-04T05:51:10.988Z,55.22
2017-01-04T05:52:22.361Z,55.22
2017-01-04T05:53:33.686Z,55.32
2017-01-04T05:54:44.571Z,54.94
2017-01-04T05:55:55.892Z,55.22
2017-01-04T05:57:07.209Z,55.22
2017-01-04T05:58:18.582Z,55.13
2017-01-04T05:59:29.907Z,55.22
2017-01-04T06:00:41.256Z,54.94
2017-01-04T06:01:52.585Z,54.94
2017-01-04T06:03:03.910Z,54.94
2017-01-04T06:04:15.279Z,55.04
2017-01-04T06:05:26.173Z,55.32
2017-01-04T06:06:36.637Z,55.04
2017-01-04T06:07:47.950Z,55.35
2017-01-04T06:08:59.276Z,55.32
2017-01-04T06:10:10.752Z,55.22
2017-01-04T06:11:22.070Z,55.04
2017-01-04T06:12:33.399Z,55.32
2017-01-04T06:13:44.716Z,55.22
2017-01-04T06:14:55.609Z,55.32
2017-01-04T06:16:06.974Z,55.32
2017-01-04T06:17:17.875Z,55.22
2017-01-04T06:18:28.760Z,55.32
2017-01-04T06:19:39.673Z,55.13
2017-01-04T06:20:51.002Z,55.13
2017-01-04T06:22:02.375Z,55.22
2017-01-04T06:23:13.688Z,55.13
2017-01-04T06:24:25.005Z,55.13
2017-01-04T06:25:35.898Z,55.22
2017-01-04T06:26:47.220Z,55.04
2017-01-04T06:27:58.588Z,55.04
2017-01-04T06:29:09.942Z,54.94
2017-01-04T06:30:21.263Z,55.04
2017-01-04T06:31:32.595Z,55.04
2017-01-04T06:32:43.909Z,55.13
2017-01-04T06:33:54.894Z,55.13
2017-01-04T06:35:06.216Z,55.04
2017-01-04T06:36:17.111Z,55.32
2017-01-04T06:37:28.424Z,55.22
2017-01-04T06:38:39.750Z,55.22
2017-01-04T06:39:51.147Z,55.51
2017-01-04T06:41:02.472Z,55.22
2017-01-04T06:42:13.357Z,55.13
2017-01-04T06:43:24.678Z,55.22
2017-01-04T06:44:36.007Z,54.94
2017-01-04T06:45:47.372Z,55.13
2017-01-04T06:46:58.713Z,55.22
2017-01-04T06:48:09.612Z,55.13
2017-01-04T06:49:20.944Z,55.04
2017-01-04T06:50:32.265Z,55.13
2017-01-04T06:51:43.634Z,55.13
2017-01-04T06:52:54.951Z,55.13
2017-01-04T06:54:06.300Z,55.22
2017-01-04T06:55:17.185Z,55.13
2017-01-04T06:56:28.078Z,55.42
2017-01-04T06:57:39.439Z,55.13
2017-01-04T06:58:50.760Z,55.04
2017-01-04T07:00:02.081Z,55.32
2017-01-04T07:01:13.410Z,55.04
2017-01-04T07:02:24.763Z,55.04
2017-01-04T07:03:36.128Z,55.22
2017-01-04T07:04:47.453Z,55.13
2017-01-04T07:05:58.773Z,55.32
2017-01-04T07:07:10.094Z,55.13
2017-01-04T07:08:21.420Z,55.04
2017-01-04T07:09:32.797Z,55.13
2017-01-04T07:10:44.113Z,55.32
2017-01-04T07:11:55.438Z,55.22
2017-01-04T07:13:06.755Z,55.32
2017-01-04T07:14:18.077Z,55.32
2017-01-04T07:15:29.441Z,54.94
2017-01-04T07:16:40.763Z,55.22
2017-01-04T07:17:52.079Z,54.94
2017-01-04T07:19:03.400Z,54.94
2017-01-04T07:20:14.721Z,55.32
2017-01-04T07:21:26.086Z,55.22
2017-01-04T07:22:37.406Z,55.32
2017-01-04T07:23:48.724Z,55.22
2017-01-04T07:25:00.033Z,55.22
2017-01-04T07:26:11.358Z,54.94
2017-01-04T07:27:22.731Z,55.32
2017-01-04T07:28:34.048Z,55.22
2017-01-04T07:29:45.360Z,55.32
2017-01-04T07:30:56.686Z,55.22
2017-01-04T07:32:08.023Z,54.94
2017-01-04T07:33:19.392Z,55.22
2017-01-04T07:34:30.280Z,55.13
2017-01-04T07:35:41.602Z,55.22
2017-01-04T07:36:52.919Z,55.22
2017-01-04T07:38:03.819Z,55.32
2017-01-04T07:39:15.184Z,55.22
2017-01-04T07:40:26.525Z,55.04
2017-01-04T07:41:37.874Z,55.04
2017-01-04T07:42:49.203Z,54.94
2017-01-04T07:44:00.516Z,55.22
2017-01-04T07:45:11.880Z,55.22
2017-01-04T07:46:23.202Z,55.13
2017-01-04T07:47:34.530Z,54.94
2017-01-04T07:48:45.847Z,54.94
2017-01-04T07:49:57.168Z,54.94
2017-01-04T07:51:08.109Z,55.13
2017-01-04T07:52:18.566Z,55.22
2017-01-04T07:53:29.887Z,54.94
2017-01-04T07:54:41.203Z,55.13
2017-01-04T07:55:52.520Z,55.13
2017-01-04T07:57:03.893Z,54.94
2017-01-04T07:58:15.218Z,55.13
2017-01-04T07:59:26.539Z,54.94
2017-01-04T08:00:37.859Z,55.22
2017-01-04T08:01:48.749Z,55.13
2017-01-04T08:03:00.117Z,55.04
2017-01-04T08:04:11.439Z,54.94
2017-01-04T08:05:22.783Z,55.13
2017-01-04T08:06:34.108Z,55.13
2017-01-04T08:07:45.425Z,55.22
2017-01-04T08:08:56.794Z,55.13
2017-01-04T08:10:08.115Z,55.22
2017-01-04T08:11:19.444Z,54.66
2017-01-04T08:12:30.753Z,54.56
2017-01-04T08:13:42.066Z,54.47
2017-01-04T08:14:56.471Z,54.68
2017-01-04T08:16:07.792Z,54.66
2017-01-04T08:17:19.113Z,54.75
2017-01-04T08:18:30.439Z,54.75
2017-01-04T08:19:41.760Z,54.75
2017-01-04T08:20:53.125Z,54.66
2017-01-04T08:22:04.018Z,54.75
2017-01-04T08:23:15.351Z,54.47
2017-01-04T08:24:26.668Z,54.56
2017-01-04T08:25:37.989Z,54.37
2017-01-04T08:26:49.382Z,54.39
2017-01-04T08:28:00.263Z,54.59
2017-01-04T08:29:11.593Z,54.78
2017-01-04T08:30:22.909Z,54.59
2017-01-04T08:31:33.799Z,54.56
2017-01-04T08:32:45.176Z,54.56
2017-01-04T08:33:56.493Z,54.47
2017-01-04T08:35:07.806Z,54.39
2017-01-04T08:36:18.264Z,54.47
2017-01-04T08:37:29.590Z,54.37
2017-01-04T08:38:40.958Z,54.49
2017-01-04T08:39:52.275Z,54.66
2017-01-04T08:41:03.601Z,54.56
2017-01-04T08:42:14.922Z,54.88
2017-01-04T08:43:25.815Z,54.78
2017-01-04T08:44:36.764Z,54.78
2017-01-04T08:45:48.090Z,54.75
2017-01-04T08:46:59.415Z,54.68
2017-01-04T08:48:10.732Z,54.78
2017-01-04T08:49:22.054Z,54.78
2017-01-04T08:50:33.415Z,54.78
2017-01-04T08:51:44.316Z,54.59
2017-01-04T08:52:55.202Z,54.68
2017-01-04T08:54:06.523Z,54.39
2017-01-04T08:55:17.841Z,54.97
2017-01-04T08:56:29.214Z,54.97
2017-01-04T08:57:40.531Z,55.07
2017-01-04T08:58:51.853Z,54.97
2017-01-04T09:00:03.178Z,54.39
2017-01-04T09:01:14.499Z,54.39
2017-01-04T09:02:25.901Z,54.3
2017-01-04T09:03:37.222Z,54.49
2017-01-04T09:04:48.567Z,54.39
2017-01-04T09:05:59.894Z,54.39
2017-01-04T09:07:11.214Z,54.3
2017-01-04T09:08:22.583Z,54.49
2017-01-04T09:09:33.921Z,54.68
2017-01-04T09:10:45.242Z,54.49
2017-01-04T09:11:56.559Z,54.59
2017-01-04T09:13:07.884Z,54.68
2017-01-04T09:14:19.254Z,53.83
2017-01-04T09:15:30.147Z,53.92
2017-01-04T09:16:41.474Z,54.68
2017-01-04T09:17:52.790Z,53.92
2017-01-04T09:19:04.123Z,54.78
2017-01-04T09:20:15.492Z,54.02
2017-01-04T09:21:26.806Z,54.59
2017-01-04T09:22:38.131Z,54.02
2017-01-04T09:23:49.468Z,53.92
2017-01-04T09:25:00.793Z,54.3
2017-01-04T09:26:12.170Z,54.02
2017-01-04T09:27:23.500Z,54.02
2017-01-04T09:28:34.417Z,53.92
2017-01-04T09:29:45.734Z,53.73
2017-01-04T09:30:56.624Z,54.11
2017-01-04T09:32:08.013Z,53.92
2017-01-04T09:33:19.338Z,54.21
2017-01-04T09:34:30.691Z,53.83
2017-01-04T09:35:42.020Z,53.83
2017-01-04T09:36:53.354Z,53.92
2017-01-04T09:38:04.723Z,53.83
2017-01-04T09:39:15.612Z,53.83
2017-01-04T09:40:26.961Z,53.92
2017-01-04T09:41:38.287Z,54.11
2017-01-04T09:42:49.608Z,54.3
2017-01-04T09:44:00.973Z,54.21
2017-01-04T09:45:12.302Z,54.21
2017-01-04T09:46:23.619Z,54.3
2017-01-04T09:47:34.936Z,54.02
2017-01-04T09:48:46.261Z,53.92
2017-01-04T09:49:57.655Z,54.78
2017-01-04T09:51:08.980Z,53.83
2017-01-04T09:52:20.303Z,54.02
2017-01-04T09:53:31.635Z,54.21
2017-01-04T09:54:42.960Z,54.21
2017-01-04T09:55:54.333Z,54.3
2017-01-04T09:57:05.658Z,54.21
2017-01-04T09:58:16.975Z,54.11
2017-01-04T09:59:28.297Z,54.11
2017-01-04T10:00:39.614Z,54.02
2017-01-04T10:01:50.987Z,54.21
2017-01-04T10:03:02.306Z,54.39
2017-01-04T10:04:13.629Z,55.26
2017-01-04T10:05:24.522Z,55.16
2017-01-04T10:06:35.840Z,55.07
2017-01-04T10:07:47.413Z,55.44
2017-01-04T10:08:58.734Z,55.35
2017-01-04T10:10:09.827Z,54.97
2017-01-04T10:11:20.104Z,55.16
2017-01-04T10:12:31.058Z,55.26
2017-01-04T10:13:42.442Z,55.16
2017-01-04T10:14:53.332Z,55.07
2017-01-04T10:16:04.652Z,55.35
2017-01-04T10:17:15.126Z,54.59
2017-01-04T10:18:26.019Z,54.49
2017-01-04T10:19:37.396Z,54.49
2017-01-04T10:20:48.721Z,54.78
2017-01-04T10:22:00.039Z,54.3
2017-01-04T10:23:11.364Z,54.43
2017-01-04T10:24:22.713Z,54.61
2017-01-04T10:25:34.122Z,53.85
2017-01-04T10:26:45.444Z,54.04
2017-01-04T10:27:56.764Z,54.43
2017-01-04T10:29:08.090Z,55.19
2017-01-04T10:30:19.415Z,55.85
2017-01-04T10:31:30.780Z,55.38
2017-01-04T10:32:42.110Z,55.57
2017-01-04T10:33:53.435Z,55.76
2017-01-04T10:35:04.748Z,55.19
2017-01-04T10:36:16.073Z,55.09
2017-01-04T10:37:27.458Z,55.19
2017-01-04T10:38:38.792Z,55.31
2017-01-04T10:39:50.120Z,55.31
2017-01-04T10:41:01.442Z,55.02
2017-01-04T10:42:12.763Z,55.21
2017-01-04T10:43:23.849Z,55.21
2017-01-04T10:44:34.741Z,54.83
2017-01-04T10:45:46.058Z,54.55
2017-01-04T10:46:57.379Z,54.64
2017-01-04T10:48:08.729Z,54.45
2017-01-04T10:49:20.110Z,54.64
2017-01-04T10:50:31.451Z,54.83
2017-01-04T10:51:42.772Z,54.74
2017-01-04T10:52:54.093Z,55.12
2017-01-04T10:54:04.978Z,54.45
2017-01-04T10:55:16.356Z,54.55
2017-01-04T10:56:27.677Z,54.45
2017-01-04T10:57:39.002Z,54.17
2017-01-04T10:58:50.327Z,54.1
2017-01-04T11:00:01.669Z,53.91
2017-01-04T11:01:13.042Z,54.86
2017-01-04T11:02:24.367Z,54.38
2017-01-04T11:03:35.696Z,54
2017-01-04T11:04:46.597Z,53.81
2017-01-04T11:05:57.923Z,54.1
2017-01-04T11:07:09.301Z,54.19
2017-01-04T11:08:20.621Z,54.1
2017-01-04T11:09:31.958Z,54.1
2017-01-04T11:10:43.275Z,54
2017-01-04T11:11:54.605Z,54.19
2017-01-04T11:13:05.981Z,53.55
2017-01-04T11:14:17.311Z,53.74
2017-01-04T11:15:28.632Z,53.65
2017-01-04T11:16:39.965Z,53.55
2017-01-04T11:17:51.286Z,53.55
2017-01-04T11:19:02.659Z,53.45
2017-01-04T11:20:13.981Z,52.88
2017-01-04T11:21:25.302Z,53.08
2017-01-04T11:22:36.623Z,53.27
2017-01-04T11:23:47.948Z,52.62
2017-01-04T11:24:59.336Z,52.91
2017-01-04T11:26:10.230Z,52.72
2017-01-04T11:27:21.127Z,53
2017-01-04T11:28:32.445Z,53.1
2017-01-04T11:29:43.774Z,52.15
2017-01-04T11:30:55.143Z,52.24
2017-01-04T11:32:06.041Z,52.24
2017-01-04T11:33:17.377Z,52.05
2017-01-04T11:34:28.702Z,52.15
2017-01-04T11:35:40.019Z,52.24
2017-01-04T11:36:51.393Z,51.95
2017-01-04T11:38:02.290Z,52.34
2017-01-04T11:39:13.615Z,52.17
2017-01-04T11:40:24.936Z,51.89
2017-01-04T11:41:36.269Z,51.6
2017-01-04T11:42:47.653Z,51.89
2017-01-04T11:43:58.975Z,51.79
2017-01-04T11:45:10.301Z,51.79
2017-01-04T11:46:21.630Z,51.89
2017-01-04T11:47:32.955Z,52.36
2017-01-04T11:48:44.332Z,51.98
2017-01-04T11:49:55.653Z,51.98
2017-01-04T11:51:06.975Z,51.98
2017-01-04T11:52:18.308Z,51.98
2017-01-04T11:53:29.641Z,52.08
2017-01-04T11:54:41.014Z,52.36
2017-01-04T11:55:52.343Z,52.55
2017-01-04T11:57:03.676Z,52.36
2017-01-04T11:58:15.034Z,52.46
2017-01-04T11:59:26.351Z,52.36
2017-01-04T12:00:37.720Z,52.46
2017-01-04T12:01:49.053Z,52.36
2017-01-04T12:03:00.382Z,51.98
2017-01-04T12:04:11.707Z,52.17
2017-01-04T12:05:23.029Z,51.98
2017-01-04T12:06:34.414Z,51.98
2017-01-04T12:07:45.763Z,52.26
2017-01-04T12:08:57.089Z,51.79
2017-01-04T12:10:08.418Z,51.79
2017-01-04T12:11:19.747Z,51.79
2017-01-04T12:12:31.120Z,51.7
2017-01-04T12:13:42.454Z,51.89
2017-01-04T12:14:53.778Z,51.7
2017-01-04T12:16:05.104Z,51.89
2017-01-04T12:17:16.421Z,51.98
2017-01-04T12:18:27.375Z,51.7
2017-01-04T12:19:38.696Z,51.7
2017-01-04T12:20:50.034Z,51.98
2017-01-04T12:22:00.927Z,51.79
2017-01-04T12:23:11.828Z,51.89
2017-01-04T12:24:23.194Z,51.6
2017-01-04T12:25:34.091Z,51.89
2017-01-04T12:26:45.418Z,51.79
2017-01-04T12:27:56.322Z,51.98
2017-01-04T12:29:07.684Z,51.79
2017-01-04T12:30:19.057Z,51.79
2017-01-04T12:31:30.387Z,52.36
2017-01-04T12:32:41.712Z,52.46
2017-01-04T12:33:53.042Z,52.36
2017-01-04T12:35:04.371Z,52.24
2017-01-04T12:36:15.745Z,51.79
2017-01-04T12:37:27.070Z,52.36
2017-01-04T12:38:38.412Z,52.24
2017-01-04T12:39:49.740Z,51.86
2017-01-04T12:41:01.090Z,52.05
2017-01-04T12:42:12.464Z,51.95
2017-01-04T12:43:23.813Z,51.76
2017-01-04T12:44:35.150Z,51.86
2017-01-04T12:45:46.472Z,51.67
2017-01-04T12:46:57.798Z,51.95
2017-01-04T12:48:09.167Z,52.05
2017-01-04T12:49:20.072Z,51.86
2017-01-04T12:50:31.390Z,52.05
2017-01-04T12:51:42.715Z,51.86
2017-01-04T12:52:54.044Z,51.86
2017-01-04T12:54:05.413Z,51.57
2017-01-04T12:55:16.731Z,51.86
2017-01-04T12:56:28.060Z,51.95
2017-01-04T12:57:39.390Z,51.76
2017-01-04T12:58:50.715Z,51.86
2017-01-04T13:00:02.088Z,52.05
2017-01-04T13:01:13.414Z,51.86
2017-01-04T13:02:24.740Z,51.76
2017-01-04T13:03:36.061Z,51.67
2017-01-04T13:04:47.390Z,51.76
2017-01-04T13:05:58.875Z,52.05
2017-01-04T13:07:10.231Z,52.34
2017-01-04T13:08:21.138Z,51.95
2017-01-04T13:09:32.041Z,51.93
2017-01-04T13:10:43.365Z,52.31
2017-01-04T13:11:54.886Z,52.31
2017-01-04T13:13:06.211Z,52.5
2017-01-04T13:14:17.545Z,52.31
2017-01-04T13:15:28.874Z,51.93
2017-01-04T13:16:40.195Z,52.5
2017-01-04T13:17:51.572Z,51.93
2017-01-04T13:19:02.910Z,51.93
2017-01-04T13:20:13.803Z,51.93
2017-01-04T13:21:24.701Z,52.03
2017-01-04T13:22:36.026Z,51.93
2017-01-04T13:23:47.395Z,51.93
2017-01-04T13:24:58.748Z,52.03
2017-01-04T13:26:10.074Z,52.03
2017-01-04T13:27:21.399Z,51.83
2017-01-04T13:28:32.320Z,51.93
2017-01-04T13:29:43.789Z,51.93
2017-01-04T13:30:55.107Z,51.83
2017-01-04T13:32:06.432Z,52.03
2017-01-04T13:33:17.758Z,52.5
2017-01-04T13:34:28.690Z,52.31
2017-01-04T13:35:40.059Z,52.12
2017-01-04T13:36:51.417Z,52.31
2017-01-04T13:38:02.758Z,52.31
2017-01-04T13:39:14.088Z,52.4
2017-01-04T13:40:25.405Z,52.31
2017-01-04T13:41:36.350Z,52.31
2017-01-04T13:42:47.675Z,52.31
2017-01-04T13:43:58.997Z,52.31
2017-01-04T13:45:10.322Z,52.4
2017-01-04T13:46:21.631Z,52.31
2017-01-04T13:47:32.576Z,51.83
2017-01-04T13:48:43.910Z,51.93
2017-01-04T13:49:55.235Z,51.93
2017-01-04T13:51:06.556Z,51.93
2017-01-04T13:52:17.905Z,52.4
2017-01-04T13:53:29.274Z,52.31
2017-01-04T13:54:40.606Z,52.4
2017-01-04T13:55:51.932Z,52.03
2017-01-04T13:57:03.253Z,52.12
2017-01-04T13:58:14.570Z,52.22
2017-01-04T13:59:25.939Z,51.93
2017-01-04T14:00:37.262Z,51.93
2017-01-04T14:01:48.585Z,52.03
2017-01-04T14:02:59.898Z,52.31
2017-01-04T14:04:11.223Z,52.03
2017-01-04T14:05:22.601Z,52.12
2017-01-04T14:06:33.930Z,52.22
2017-01-04T14:07:45.243Z,52.31
2017-01-04T14:08:56.564Z,52.31
2017-01-04T14:10:07.881Z,52.4
2017-01-04T14:11:19.254Z,52.12
2017-01-04T14:12:30.587Z,52.12
2017-01-04T14:13:41.907Z,52.5
2017-01-04T14:14:53.225Z,52.38
2017-01-04T14:16:04.550Z,52.19
2017-01-04T14:17:15.927Z,52.12
2017-01-04T14:18:27.248Z,52.38
2017-01-04T14:19:38.578Z,52.76
2017-01-04T14:20:49.927Z,52.76
2017-01-04T14:22:01.247Z,53.14
2017-01-04T14:23:12.622Z,53.14
2017-01-04T14:24:23.954Z,52.86
2017-01-04T14:25:35.282Z,52.95
2017-01-04T14:26:46.607Z,52.95
2017-01-04T14:27:57.932Z,52.76
2017-01-04T14:29:09.309Z,52.86
2017-01-04T14:30:20.642Z,52.57
2017-01-04T14:31:31.966Z,52.76
2017-01-04T14:32:43.292Z,52.76
2017-01-04T14:33:54.608Z,52.76
2017-01-04T14:35:05.985Z,52.95
2017-01-04T14:36:17.310Z,52.67
2017-01-04T14:37:28.199Z,52.67
2017-01-04T14:38:39.552Z,52.95
2017-01-04T14:39:50.869Z,52.86
2017-01-04T14:41:02.302Z,52.95
2017-01-04T14:42:13.627Z,53.43
2017-01-04T14:43:24.949Z,53.33
2017-01-04T14:44:36.280Z,53.05
2017-01-04T14:45:47.603Z,53.14
2017-01-04T14:46:58.551Z,53.33
2017-01-04T14:48:09.869Z,53.05
2017-01-04T14:49:21.202Z,53.33
2017-01-04T14:50:32.091Z,52.86
2017-01-04T14:51:43.408Z,53.05
2017-01-04T14:52:54.786Z,53.14
2017-01-04T14:54:06.103Z,53.43
2017-01-04T14:55:17.424Z,53.53
2017-01-04T14:56:28.745Z,53.14
2017-01-04T14:57:40.066Z,53.43
2017-01-04T14:58:51.015Z,53.33
2017-01-04T15:00:02.341Z,53.53
2017-01-04T15:01:13.674Z,53.33
2017-01-04T15:02:25.003Z,53.24
2017-01-04T15:03:36.336Z,53.33
2017-01-04T15:04:47.709Z,53.33
2017-01-04T15:05:58.590Z,53.62
2017-01-04T15:07:09.915Z,53.81
2017-01-04T15:08:21.236Z,53.81
2017-01-04T15:09:32.554Z,53.91
2017-01-04T15:10:43.934Z,53.69
2017-01-04T15:11:55.260Z,53.69
2017-01-04T15:13:05.733Z,53.72
2017-01-04T15:14:17.054Z,53.78
2017-01-04T15:15:27.943Z,53.59
2017-01-04T15:16:39.312Z,54.19
2017-01-04T15:17:50.666Z,53.81
2017-01-04T15:19:01.563Z,53.88
2017-01-04T15:20:12.893Z,53.78
2017-01-04T15:21:23.789Z,53.97